Time;durP1;ratioP1;P1;durP2;ratioP2;P2;SDS_P1;SDS_P2;PMS_P1;PMS_P2;Temp;Humidity;BMP_temperature;BMP_pressure;BME280_temperature;BME280_humidity;BME280_pressure;Samples;Min_cycle;Max_cycle;Signal;HPM_P1;HPM_P2
2021/05/08 00:00:59;;;;;;;3.47;2.90;;;2.70;99.90;;;;;;4937458;29;20043;-79
2021/05/08 00:03:31;;;;;;;4.57;3.00;;;2.70;99.90;;;;;;4922772;29;20491;-79
2021/05/08 00:05:59;;;;;;;5.07;3.10;;;2.60;99.90;;;;;;4922090;29;20052;-80
2021/05/08 00:08:30;;;;;;;5.07;3.58;;;2.60;99.90;;;;;;4922475;29;20050;-79
2021/05/08 00:10:58;;;;;;;5.47;3.80;;;2.70;99.90;;;;;;4938746;29;20124;-80
2021/05/08 00:13:25;;;;;;;3.65;2.92;;;2.70;99.90;;;;;;4921122;29;20056;-80
2021/05/08 00:15:52;;;;;;;4.57;3.70;;;2.70;99.90;;;;;;4921836;29;20051;-80
2021/05/08 00:18:24;;;;;;;3.97;3.08;;;2.70;99.90;;;;;;4923568;29;20051;-80
2021/05/08 00:20:51;;;;;;;4.57;3.40;;;2.70;99.90;;;;;;4923135;29;20089;-80
2021/05/08 00:23:19;;;;;;;4.50;3.00;;;2.70;99.90;;;;;;4922586;29;20056;-79
2021/05/08 00:25:46;;;;;;;6.78;3.80;;;2.60;99.90;;;;;;4922271;29;20052;-80
2021/05/08 00:28:14;;;;;;;4.35;3.15;;;2.60;99.90;;;;;;4922916;29;20043;-80
2021/05/08 00:30:42;;;;;;;6.32;4.05;;;2.50;99.90;;;;;;4922586;29;20047;-80
2021/05/08 00:33:09;;;;;;;5.00;3.15;;;2.50;99.90;;;;;;4922947;29;20047;-80
2021/05/08 00:35:41;;;;;;;4.55;3.22;;;2.50;99.90;;;;;;4938563;29;20044;-80
2021/05/08 00:38:08;;;;;;;4.95;3.20;;;2.50;99.90;;;;;;4937869;29;20059;-80
2021/05/08 00:40:35;;;;;;;3.78;3.30;;;2.50;99.90;;;;;;4922324;29;20055;-80
2021/05/08 00:43:03;;;;;;;3.33;2.95;;;2.50;99.90;;;;;;4939625;29;20035;-80
2021/05/08 00:45:32;;;;;;;3.58;2.83;;;2.50;99.90;;;;;;4921178;29;20062;-80
2021/05/08 00:48:10;;;;;;;3.75;3.13;;;2.50;99.90;;;;;;4922878;29;20051;-80
2021/05/08 00:50:43;;;;;;;4.35;2.65;;;2.60;99.90;;;;;;4922894;29;20047;-80
2021/05/08 00:53:12;;;;;;;5.25;2.90;;;2.60;99.90;;;;;;4937822;29;20046;-80
2021/05/08 00:55:44;;;;;;;3.58;2.80;;;2.50;99.90;;;;;;4922827;29;20075;-79
2021/05/08 00:58:12;;;;;;;3.33;3.03;;;2.50;99.90;;;;;;4922101;29;20499;-80
2021/05/08 01:00:41;;;;;;;5.63;2.70;;;2.50;99.90;;;;;;4921812;29;20078;-80
2021/05/08 01:03:09;;;;;;;4.30;3.47;;;2.50;99.90;;;;;;4922062;29;20051;-80
2021/05/08 01:05:38;;;;;;;5.53;3.28;;;2.50;99.90;;;;;;4922682;29;20054;-80
2021/05/08 01:08:12;;;;;;;;;;;2.40;99.90;;;;;;4937805;29;20064;-80
2021/05/08 01:10:45;;;;;;;4.32;3.05;;;2.40;99.90;;;;;;4922142;29;19926;-80
2021/05/08 01:13:12;;;;;;;4.32;3.15;;;2.40;99.90;;;;;;4921321;29;20060;-80
2021/05/08 01:15:41;;;;;;;3.45;3.08;;;2.30;99.90;;;;;;4921739;29;20103;-80
2021/05/08 01:18:10;;;;;;;3.78;3.25;;;2.30;99.90;;;;;;4922188;29;20062;-81
2021/05/08 01:20:38;;;;;;;3.72;2.80;;;2.30;99.90;;;;;;4921932;29;20138;-80
2021/05/08 01:23:06;;;;;;;4.78;3.28;;;2.30;99.90;;;;;;4922216;29;20052;-80
2021/05/08 01:25:38;;;;;;;3.75;3.10;;;2.20;99.90;;;;;;4922861;29;20047;-81
2021/05/08 01:28:05;;;;;;;4.30;3.50;;;2.20;99.90;;;;;;4922025;29;20490;-80
2021/05/08 01:30:39;;;;;;;5.43;3.50;;;2.20;99.90;;;;;;4922699;29;20040;-80
2021/05/08 01:33:12;;;;;;;3.80;3.00;;;2.20;99.90;;;;;;4922594;29;20052;-80
2021/05/08 01:35:41;;;;;;;3.40;2.78;;;2.20;99.90;;;;;;4921854;29;20055;-80
2021/05/08 01:38:09;;;;;;;5.35;3.47;;;2.20;99.90;;;;;;4922022;29;20058;-80
2021/05/08 01:40:38;;;;;;;5.57;3.35;;;2.10;99.90;;;;;;4921952;29;20052;-80
2021/05/08 01:43:26;;;;;;;3.90;2.83;;;2.10;99.90;;;;;;4937462;29;20051;-80
2021/05/08 01:49:52;;;;;;;4.07;3.20;;;2.00;99.90;;;;;;4900580;29;20051;-80
2021/05/08 02:00:14;;;;;;;3.50;2.78;;;1.90;99.90;;;;;;4900453;29;20055;-80
2021/05/08 02:02:45;;;;;;;3.97;2.85;;;1.90;99.90;;;;;;4899781;29;20052;-80
2021/05/08 02:05:17;;;;;;;4.97;3.33;;;1.80;99.90;;;;;;4884442;29;20051;-81
2021/05/08 02:07:52;;;;;;;4.20;3.00;;;1.80;99.90;;;;;;4884142;29;20056;-80
2021/05/08 02:10:24;;;;;;;6.38;3.33;;;1.80;99.90;;;;;;4898963;29;20049;-80
2021/05/08 02:12:53;;;;;;;8.30;4.28;;;1.80;99.90;;;;;;4884222;29;20040;-81
2021/05/08 02:15:22;;;;;;;4.97;3.58;;;1.80;99.90;;;;;;4883563;29;20096;-81
2021/05/08 02:17:50;;;;;;;5.15;3.85;;;1.70;99.90;;;;;;4883849;29;20131;-80
2021/05/08 02:20:26;;;;;;;4.53;3.17;;;1.70;99.90;;;;;;4883359;29;20057;-80
2021/05/08 02:22:58;;;;;;;4.30;3.30;;;1.70;99.90;;;;;;4898998;29;20048;-80
2021/05/08 02:25:26;;;;;;;4.82;3.55;;;1.70;99.90;;;;;;4898878;29;20075;-80
2021/05/08 02:27:58;;;;;;;4.95;3.47;;;1.70;99.90;;;;;;4884114;29;20055;-80
2021/05/08 02:30:30;;;;;;;4.30;3.17;;;1.70;99.90;;;;;;4898665;29;20036;-81
2021/05/08 02:32:58;;;;;;;4.32;3.28;;;1.60;99.90;;;;;;4883269;29;20519;-80
2021/05/08 02:35:26;;;;;;;4.03;3.22;;;1.60;99.90;;;;;;4882879;29;20040;-80
2021/05/08 02:37:55;;;;;;;3.40;2.60;;;1.60;99.90;;;;;;4898440;29;20040;-80
2021/05/08 02:40:29;;;;;;;5.60;3.15;;;1.60;99.90;;;;;;4898513;29;20055;-80
2021/05/08 02:42:58;;;;;;;4.43;3.38;;;1.60;99.90;;;;;;4883333;29;20060;-79
2021/05/08 02:45:31;;;;;;;4.72;3.28;;;1.60;99.90;;;;;;4898219;29;20080;-80
2021/05/08 02:47:58;;;;;;;6.07;4.28;;;1.60;99.90;;;;;;4898286;29;20086;-80
2021/05/08 02:50:29;;;;;;;5.35;3.75;;;1.50;99.90;;;;;;4898277;29;20050;-80
2021/05/08 02:53:00;;;;;;;5.75;3.78;;;1.50;99.90;;;;;;4883407;29;20045;-80
2021/05/08 02:55:31;;;;;;;4.47;3.42;;;1.50;99.90;;;;;;4883311;29;20052;-80
2021/05/08 02:58:01;;;;;;;4.72;3.40;;;1.50;99.90;;;;;;4897812;29;20047;-80
2021/05/08 03:00:30;;;;;;;5.05;3.53;;;1.50;99.90;;;;;;4883232;29;20059;-80
2021/05/08 03:03:08;;;;;;;4.78;3.17;;;1.50;99.90;;;;;;4884110;29;20052;-80
2021/05/08 03:05:37;;;;;;;4.40;2.80;;;1.50;99.90;;;;;;4882928;29;20055;-80
2021/05/08 03:08:11;;;;;;;4.00;3.30;;;1.50;99.90;;;;;;4897323;29;20049;-80
2021/05/08 03:10:44;;;;;;;4.68;3.15;;;1.50;99.90;;;;;;4882749;29;20044;-80
2021/05/08 03:13:19;;;;;;;5.45;3.75;;;1.50;99.90;;;;;;4883474;29;20107;-80
2021/05/08 03:15:46;;;;;;;5.50;3.53;;;1.50;99.90;;;;;;4897702;29;20116;-80
2021/05/08 03:18:14;;;;;;;4.70;3.50;;;1.40;99.90;;;;;;4897954;29;20520;-80
2021/05/08 03:20:41;;;;;;;5.50;3.20;;;1.40;99.90;;;;;;4882483;29;20049;-80
2021/05/08 03:23:09;;;;;;;4.70;3.55;;;1.40;99.90;;;;;;4882507;29;20538;-80
2021/05/08 03:25:38;;;;;;;4.78;2.72;;;1.40;99.90;;;;;;4882076;29;20052;-80
2021/05/08 03:28:05;;;;;;;4.40;3.00;;;1.40;99.90;;;;;;4897726;29;20583;-80
2021/05/08 03:30:37;;;;;;;5.28;3.40;;;1.40;99.90;;;;;;4882764;29;20047;-80
2021/05/08 03:33:07;;;;;;;4.00;2.70;;;1.40;99.90;;;;;;4882702;29;20057;-80
2021/05/08 03:35:35;;;;;;;5.70;2.97;;;1.40;99.90;;;;;;4882285;29;20112;-80
2021/05/08 03:38:08;;;;;;;4.53;3.28;;;1.40;99.90;;;;;;4897984;29;20040;-80
2021/05/08 03:40:35;;;;;;;3.78;3.10;;;1.30;99.90;;;;;;4882031;29;20060;-80
2021/05/08 03:43:03;;;;;;;5.00;3.00;;;1.30;99.90;;;;;;4888287;29;20048;-81
2021/05/08 03:45:35;;;;;;;4.13;3.50;;;1.30;99.90;;;;;;4889261;29;20104;-81
2021/05/08 03:48:03;;;;;;;3.83;2.92;;;1.30;99.90;;;;;;4903819;29;20418;-81
2021/05/08 03:50:31;;;;;;;4.40;3.70;;;1.30;99.90;;;;;;4887737;29;20041;-81
2021/05/08 03:52:58;;;;;;;3.90;3.10;;;1.30;99.90;;;;;;4887560;29;20044;-81
2021/05/08 03:55:26;;;;;;;3.85;3.42;;;1.30;99.90;;;;;;4903216;29;20527;-81
2021/05/08 03:57:59;;;;;;;5.30;3.00;;;1.30;99.90;;;;;;4888811;29;20047;-81
2021/05/08 04:00:26;;;;;;;4.85;3.13;;;1.30;99.90;;;;;;4887594;29;20136;-81
2021/05/08 04:02:54;;;;;;;4.43;3.13;;;1.30;99.90;;;;;;4903442;29;20135;-81
2021/05/08 04:05:22;;;;;;;3.90;3.35;;;1.30;99.90;;;;;;4888855;29;20049;-81
2021/05/08 04:07:49;;;;;;;3.72;3.03;;;1.40;99.90;;;;;;4888537;29;20048;-81
2021/05/08 04:10:19;;;;;;;4.00;3.10;;;1.40;99.90;;;;;;4887404;29;20041;-81
2021/05/08 04:12:46;;;;;;;5.28;3.22;;;1.30;99.90;;;;;;4887536;29;20158;-81
2021/05/08 04:15:22;;;;;;;3.90;3.13;;;1.30;99.90;;;;;;4888168;29;20055;-81
2021/05/08 04:17:49;;;;;;;5.57;3.65;;;1.20;99.90;;;;;;4888087;29;20100;-81
2021/05/08 04:20:17;;;;;;;3.83;3.15;;;1.20;99.90;;;;;;4889564;29;20080;-81
2021/05/08 04:22:50;;;;;;;6.35;4.15;;;1.20;99.90;;;;;;4891922;29;20056;-81
2021/05/08 04:25:17;;;;;;;5.05;3.72;;;1.20;99.90;;;;;;4891425;29;20051;-81
2021/05/08 04:27:44;;;;;;;4.28;3.10;;;1.20;99.90;;;;;;4906488;29;20048;-81
2021/05/08 04:30:12;;;;;;;4.30;3.08;;;1.20;99.90;;;;;;4905489;29;20131;-81
2021/05/08 04:32:40;;;;;;;7.28;5.07;;;1.20;99.90;;;;;;4890656;29;20104;-81
2021/05/08 04:35:08;;;;;;;15.13;8.10;;;1.30;99.90;;;;;;4890878;29;20500;-81
2021/05/08 04:37:35;;;;;;;14.90;9.07;;;1.30;99.90;;;;;;4906286;29;20132;-81
2021/05/08 04:40:03;;;;;;;8.15;6.05;;;1.30;99.90;;;;;;4906597;29;20044;-81
2021/05/08 04:42:31;;;;;;;8.02;4.70;;;1.30;99.90;;;;;;4890899;29;20477;-81
2021/05/08 04:44:59;;;;;;;9.85;4.68;;;1.30;99.90;;;;;;4891097;29;20568;-82
2021/05/08 04:47:26;;;;;;;8.60;5.10;;;1.40;99.90;;;;;;4906502;29;20056;-82
2021/05/08 04:49:58;;;;;;;9.20;5.35;;;1.40;99.90;;;;;;4908187;29;20082;-81
2021/05/08 04:52:26;;;;;;;8.77;5.53;;;1.40;99.90;;;;;;4892276;29;20139;-81
2021/05/08 04:54:54;;;;;;;6.50;4.35;;;1.40;99.90;;;;;;4891697;29;20049;-81
2021/05/08 04:57:21;;;;;;;5.63;4.28;;;1.50;99.90;;;;;;4892053;29;20068;-81
2021/05/08 04:59:49;;;;;;;4.85;4.07;;;1.60;99.90;;;;;;4892714;29;20108;-81
2021/05/08 05:02:16;;;;;;;5.38;4.60;;;1.60;99.90;;;;;;4909258;29;20071;-81
2021/05/08 05:04:43;;;;;;;12.68;8.43;;;1.60;99.90;;;;;;4908590;29;20087;-81
2021/05/08 05:07:11;;;;;;;8.45;5.88;;;1.60;99.90;;;;;;4910755;29;20049;-83
2021/05/08 05:09:38;;;;;;;11.73;6.15;;;1.60;99.90;;;;;;4895067;29;20048;-81
2021/05/08 05:12:11;;;;;;;8.27;5.80;;;1.60;99.90;;;;;;4894438;29;20045;-81
2021/05/08 05:14:40;;;;;;;7.30;5.47;;;1.60;99.90;;;;;;4893525;29;20047;-81
2021/05/08 05:17:08;;;;;;;7.10;4.50;;;1.60;99.90;;;;;;4894854;29;20051;-81
2021/05/08 05:19:35;;;;;;;5.53;4.60;;;1.70;99.90;;;;;;4895445;29;20075;-81
2021/05/08 05:22:02;;;;;;;8.50;5.82;;;1.80;99.90;;;;;;4895202;29;20053;-81
2021/05/08 05:24:29;;;;;;;14.65;8.63;;;1.80;99.90;;;;;;4906914;29;20048;-81
2021/05/08 05:26:59;;;;;;;7.47;5.72;;;1.80;99.90;;;;;;4948621;29;20111;-81
2021/05/08 05:29:27;;;;;;;7.30;4.55;;;1.80;99.90;;;;;;4923236;29;20053;-81
2021/05/08 05:31:59;;;;;;;7.60;4.88;;;1.80;99.90;;;;;;4894188;29;20124;-81
2021/05/08 05:34:26;;;;;;;6.10;4.75;;;1.90;99.90;;;;;;4895296;29;20045;-81
2021/05/08 05:36:54;;;;;;;6.97;4.82;;;1.90;99.90;;;;;;4909753;29;20052;-81
2021/05/08 05:39:21;;;;;;;7.30;5.10;;;2.00;99.90;;;;;;4894311;29;20081;-81
2021/05/08 05:41:50;;;;;;;5.35;4.68;;;2.10;99.90;;;;;;4894190;29;20055;-81
2021/05/08 05:44:17;;;;;;;5.97;4.40;;;2.10;99.90;;;;;;4909755;29;20044;-81
2021/05/08 05:46:45;;;;;;;6.57;4.57;;;2.20;99.90;;;;;;4893934;29;20045;-82
2021/05/08 05:49:13;;;;;;;7.18;5.07;;;2.20;99.90;;;;;;4892781;29;20136;-81
2021/05/08 05:51:42;;;;;;;9.13;6.15;;;2.20;99.90;;;;;;4891553;29;20104;-81
2021/05/08 05:54:10;;;;;;;10.38;7.32;;;2.30;99.90;;;;;;4893623;29;20081;-81
2021/05/08 05:56:37;;;;;;;9.43;6.30;;;2.30;99.90;;;;;;4909783;29;20146;-81
2021/05/08 05:59:04;;;;;;;9.15;6.35;;;2.40;99.90;;;;;;4885004;29;20055;-78
2021/05/08 06:01:31;;;;;;;7.32;6.35;;;2.40;99.90;;;;;;4897545;29;20052;-79
2021/05/08 06:03:58;;;;;;;6.13;4.97;;;2.50;99.90;;;;;;4897429;29;20543;-79
2021/05/08 06:06:32;;;;;;;5.45;4.30;;;2.90;99.90;;;;;;4881265;29;20143;-79
2021/05/08 06:09:00;;;;;;;4.90;4.00;;;3.20;99.90;;;;;;4897579;29;20048;-79
2021/05/08 06:11:32;;;;;;;5.07;4.55;;;3.50;99.90;;;;;;4882311;29;20426;-80
2021/05/08 06:13:59;;;;;;;7.47;5.13;;;3.80;99.90;;;;;;4913140;29;20138;-79
2021/05/08 06:16:26;;;;;;;8.05;6.32;;;4.00;99.90;;;;;;4900357;29;20063;-79
2021/05/08 06:18:54;;;;;;;7.28;5.22;;;4.10;99.90;;;;;;4900624;29;20514;-79
2021/05/08 06:21:26;;;;;;;7.85;4.72;;;4.30;99.90;;;;;;4900958;29;20064;-79
2021/05/08 06:23:55;;;;;;;7.78;5.40;;;4.40;99.90;;;;;;4900443;29;20048;-79
2021/05/08 06:26:23;;;;;;;7.97;5.35;;;4.50;99.90;;;;;;4900461;29;20047;-79
2021/05/08 06:28:50;;;;;;;6.78;5.45;;;4.60;99.90;;;;;;4901391;29;20527;-80
2021/05/08 06:31:17;;;;;;;8.98;4.60;;;4.60;99.90;;;;;;4900920;29;20052;-80
2021/05/08 06:33:45;;;;;;;6.60;4.95;;;4.70;99.90;;;;;;4901103;29;20112;-80
2021/05/08 06:36:12;;;;;;;8.90;4.75;;;4.70;99.90;;;;;;4900683;29;20063;-80
2021/05/08 06:38:39;;;;;;;7.00;5.10;;;4.80;99.90;;;;;;4900453;29;20119;-79
2021/05/08 06:41:06;;;;;;;6.22;4.97;;;4.80;99.90;;;;;;4916451;29;20048;-80
2021/05/08 06:43:33;;;;;;;7.22;5.60;;;4.90;99.90;;;;;;4899933;29;20519;-80
2021/05/08 06:46:00;;;;;;;6.53;4.90;;;4.90;99.90;;;;;;4900387;29;20052;-80
2021/05/08 06:48:28;;;;;;;6.57;5.65;;;4.80;99.90;;;;;;4900370;29;20059;-80
2021/05/08 06:50:55;;;;;;;9.43;6.18;;;4.80;99.90;;;;;;4917490;29;20522;-80
2021/05/08 06:53:27;;;;;;;8.45;5.55;;;4.80;99.90;;;;;;4915935;29;20056;-80
2021/05/08 06:55:55;;;;;;;9.55;6.28;;;4.90;99.90;;;;;;4901810;29;20052;-80
2021/05/08 06:58:22;;;;;;;9.70;6.38;;;5.00;99.90;;;;;;4916589;29;20045;-80
2021/05/08 07:00:49;;;;;;;7.97;5.63;;;5.00;99.90;;;;;;4899192;29;20076;-78
2021/05/08 07:03:20;;;;;;;11.15;6.20;;;5.10;99.90;;;;;;4915046;29;20130;-79
2021/05/08 07:05:51;;;;;;;9.85;7.10;;;5.20;99.90;;;;;;4899554;29;20140;-79
2021/05/08 07:08:19;;;;;;;6.43;5.28;;;5.30;99.90;;;;;;4914458;29;20104;-79
2021/05/08 07:10:50;;;;;;;29.00;18.65;;;5.40;99.90;;;;;;4914941;29;20060;-80
2021/05/08 07:13:22;;;;;;;11.95;8.93;;;5.50;99.90;;;;;;4914316;29;20555;-76
2021/05/08 07:15:54;;;;;;;8.48;6.47;;;5.60;99.90;;;;;;4899319;29;20059;-76
2021/05/08 07:18:26;;;;;;;6.00;5.40;;;5.70;99.90;;;;;;4913979;29;20056;-76
2021/05/08 07:20:57;;;;;;;6.68;4.90;;;5.70;99.90;;;;;;4899235;29;20054;-76
2021/05/08 07:23:23;;;;;;;6.32;5.72;;;5.80;99.90;;;;;;4898564;29;20513;-76
2021/05/08 07:25:49;;;;;;;6.38;5.63;;;6.00;99.90;;;;;;4898117;29;20479;-76
2021/05/08 07:28:19;;;;;;;7.13;4.95;;;6.10;99.90;;;;;;4913871;29;20075;-76
2021/05/08 07:30:53;;;;;;;6.22;5.40;;;6.20;99.90;;;;;;4898902;29;20419;-76
2021/05/08 07:33:20;;;;;;;9.23;8.27;;;6.30;99.90;;;;;;4915397;29;20048;-76
2021/05/08 07:35:52;;;;;;;9.75;6.50;;;6.50;99.90;;;;;;4898967;29;20036;-76
2021/05/08 07:38:23;;;;;;;21.05;16.98;;;6.60;99.90;;;;;;4915340;29;20127;-77
2021/05/08 07:40:55;;;;;;;7.80;6.68;;;6.70;99.90;;;;;;4899030;29;20044;-76
2021/05/08 07:43:26;;;;;;;7.50;6.47;;;6.90;99.90;;;;;;4899142;29;20055;-76
2021/05/08 07:45:53;;;;;;;8.00;6.82;;;7.10;99.90;;;;;;4908621;29;20048;-75
2021/05/08 07:48:19;;;;;;;10.50;9.40;;;7.30;99.90;;;;;;4905788;29;20076;-77
2021/05/08 07:50:46;;;;;;;9.05;7.65;;;7.50;99.90;;;;;;4879523;29;20081;-77
2021/05/08 07:53:12;;;;;;;7.78;6.20;;;7.60;99.90;;;;;;4895320;29;20076;-77
2021/05/08 07:55:44;;;;;;;9.68;8.23;;;7.80;99.90;;;;;;4882689;29;20575;-76
2021/05/08 07:58:10;;;;;;;9.02;6.18;;;8.00;99.90;;;;;;4898108;29;20052;-76
2021/05/08 08:00:41;;;;;;;7.47;5.80;;;8.20;99.90;;;;;;4901573;29;20055;-75
2021/05/08 08:03:08;;;;;;;7.72;5.97;;;8.40;99.90;;;;;;4901240;29;20051;-76
2021/05/08 08:05:34;;;;;;;7.63;5.93;;;8.60;99.90;;;;;;4899738;29;20056;-77
2021/05/08 08:08:06;;;;;;;5.93;4.60;;;8.80;99.90;;;;;;4885763;29;20108;-77
2021/05/08 08:10:32;;;;;;;4.13;3.28;;;9.00;99.90;;;;;;4888502;29;20063;-77
2021/05/08 08:12:59;;;;;;;5.53;3.90;;;9.10;99.90;;;;;;4908648;29;20044;-77
2021/05/08 08:15:25;;;;;;;3.10;2.33;;;9.20;99.90;;;;;;4898876;29;20135;-76
2021/05/08 08:17:51;;;;;;;3.03;2.35;;;9.50;99.90;;;;;;4904100;29;20049;-76
2021/05/08 08:20:23;;;;;;;2.42;1.50;;;9.70;99.90;;;;;;4911506;29;20079;-77
2021/05/08 08:22:49;;;;;;;4.97;2.65;;;9.90;99.90;;;;;;4901292;29;20059;-77
2021/05/08 08:25:16;;;;;;;2.03;1.58;;;10.00;99.90;;;;;;4898277;29;20055;-77
2021/05/08 08:27:42;;;;;;;6.50;2.00;;;10.10;99.90;;;;;;4898233;29;20476;-77
2021/05/08 08:30:11;;;;;;;3.60;1.65;;;10.20;99.90;;;;;;4881292;29;20104;-77
2021/05/08 08:32:42;;;;;;;3.83;2.20;;;10.30;99.90;;;;;;4897889;29;20123;-77
2021/05/08 08:35:14;;;;;;;5.95;3.90;;;10.40;99.90;;;;;;4888300;29;20063;-77
2021/05/08 08:37:45;;;;;;;3.67;2.55;;;10.50;99.90;;;;;;4898840;29;20045;-77
2021/05/08 08:40:12;;;;;;;4.82;4.18;;;10.70;99.90;;;;;;4896218;29;20051;-76
2021/05/08 08:42:38;;;;;;;1.95;1.55;;;10.80;99.90;;;;;;4898893;29;20053;-77
2021/05/08 08:45:10;;;;;;;2.13;1.40;;;11.00;99.90;;;;;;4910892;29;20052;-77
2021/05/08 08:47:37;;;;;;;2.53;1.88;;;11.10;97.20;;;;;;4903406;29;20567;-77
2021/05/08 08:50:10;;;;;;;4.72;2.03;;;11.20;96.40;;;;;;4912105;29;20415;-77
2021/05/08 08:52:42;;;;;;;8.27;4.10;;;11.30;96.60;;;;;;4902228;29;20507;-77
2021/05/08 08:55:13;;;;;;;5.65;1.98;;;11.40;96.10;;;;;;4913088;29;20044;-77
2021/05/08 08:57:42;;;;;;;3.85;1.70;;;11.50;97.50;;;;;;4900861;29;20591;-77
2021/05/08 09:00:15;;;;;;;2.35;1.65;;;11.60;97.20;;;;;;4898064;29;20415;-76
2021/05/08 09:02:47;;;;;;;3.38;1.90;;;11.70;96.30;;;;;;4902107;29;20552;-77
2021/05/08 09:05:16;;;;;;;2.67;1.77;;;11.70;94.80;;;;;;4909465;29;20545;-76
2021/05/08 09:07:47;;;;;;;3.30;1.70;;;11.70;95.30;;;;;;4914994;29;20075;-77
2021/05/08 09:10:30;;;;;;;3.17;1.92;;;11.80;95.60;;;;;;4915901;29;20509;-76
2021/05/08 09:12:58;;;;;;;2.70;1.60;;;11.90;93.10;;;;;;4895938;29;20147;-77
2021/05/08 09:15:38;;;;;;;2.28;1.48;;;11.90;94.60;;;;;;4900611;29;20045;-75
2021/05/08 09:18:06;;;;;;;3.30;2.65;;;12.00;97.10;;;;;;4906379;29;20131;-75
2021/05/08 09:20:47;;;;;;;3.50;1.95;;;12.10;94.60;;;;;;4887703;29;20131;-78
2021/05/08 09:23:32;;;;;;;3.17;1.80;;;12.30;94.40;;;;;;4912775;29;20083;-75
2021/05/08 09:26:14;;;;;;;2.45;1.92;;;12.40;92.90;;;;;;4905566;29;20140;-75
2021/05/08 09:28:53;;;;;;;2.05;1.80;;;12.60;91.30;;;;;;4901657;29;20075;-74
2021/05/08 09:31:19;;;;;;;3.30;1.73;;;12.70;93.40;;;;;;4912367;29;20131;-75
2021/05/08 09:33:52;;;;;;;2.65;2.08;;;12.90;94.40;;;;;;4904425;29;20047;-74
2021/05/08 09:36:18;;;;;;;2.30;1.80;;;13.00;90.50;;;;;;4915349;29;20080;-74
2021/05/08 09:38:46;;;;;;;1.92;1.73;;;13.00;91.50;;;;;;4882342;29;20100;-74
2021/05/08 09:41:13;;;;;;;20.50;14.18;;;13.00;90.50;;;;;;4882645;29;20576;-74
2021/05/08 09:43:41;;;;;;;9.63;7.90;;;13.00;90.60;;;;;;4911029;29;20139;-74
2021/05/08 09:46:09;;;;;;;4.18;2.42;;;12.90;90.80;;;;;;4899917;29;20143;-74
2021/05/08 09:48:37;;;;;;;3.80;2.78;;;13.00;89.70;;;;;;4903299;29;20063;-74
2021/05/08 09:51:28;;;;;;;1.90;1.70;;;13.10;87.20;;;;;;4889511;29;20124;-74
2021/05/08 09:54:14;;;;;;;1.92;1.17;;;13.20;84.40;;;;;;4908413;29;20064;-75
2021/05/08 09:56:45;;;;;;;1.10;0.90;;;13.30;76.80;;;;;;4905115;29;20127;-74
2021/05/08 09:59:31;;;;;;;3.60;1.00;;;13.40;76.60;;;;;;4889225;29;20079;-74
2021/05/08 10:02:06;;;;;;;1.30;1.02;;;13.50;78.20;;;;;;4901651;29;20064;-74
2021/05/08 10:04:34;;;;;;;1.88;1.25;;;13.50;77.70;;;;;;4889555;29;20150;-74
2021/05/08 10:07:16;;;;;;;3.25;1.30;;;13.40;75.60;;;;;;4904723;29;20043;-74
2021/05/08 10:09:49;;;;;;;1.65;1.20;;;13.50;75.90;;;;;;4890812;29;20131;-74
2021/05/08 10:12:24;;;;;;;3.22;1.85;;;13.50;73.90;;;;;;4908598;29;20054;-74
2021/05/08 10:14:55;;;;;;;1.40;1.10;;;13.50;74.30;;;;;;4902093;29;20044;-74
2021/05/08 10:17:24;;;;;;;5.30;3.42;;;13.50;76.00;;;;;;4913143;29;20052;-74
2021/05/08 10:19:52;;;;;;;2.42;2.13;;;13.50;75.90;;;;;;4893706;29;20048;-74
2021/05/08 10:22:29;;;;;;;3.78;2.10;;;13.60;77.20;;;;;;4906002;29;20040;-74
2021/05/08 10:24:56;;;;;;;4.63;3.33;;;13.70;75.50;;;;;;4891418;29;20044;-73
2021/05/08 10:27:27;;;;;;;2.10;1.50;;;13.80;78.80;;;;;;4897806;29;20049;-72
2021/05/08 10:29:54;;;;;;;6.22;1.30;;;13.90;77.30;;;;;;4907043;29;20119;-73
2021/05/08 10:32:21;;;;;;;2.03;1.45;;;14.00;77.50;;;;;;4886205;29;20045;-74
2021/05/08 10:34:58;;;;;;;3.25;2.10;;;14.10;74.30;;;;;;4902883;29;20075;-74
2021/05/08 10:37:30;;;;;;;2.03;1.52;;;14.30;74.50;;;;;;4886984;29;20049;-73
2021/05/08 10:39:59;;;;;;;2.83;1.88;;;14.30;79.40;;;;;;4885689;29;20068;-74
2021/05/08 10:42:37;;;;;;;3.67;1.30;;;14.30;77.70;;;;;;4904094;29;20125;-76
2021/05/08 10:45:12;;;;;;;;;;;14.40;74.30;;;;;;4911798;29;20094;-76
2021/05/08 10:47:55;;;;;;;3.13;1.65;;;14.50;71.00;;;;;;4885337;29;19929;-76
2021/05/08 10:50:47;;;;;;;1.92;1.50;;;14.50;69.70;;;;;;4899385;29;20048;-76
2021/05/08 10:53:17;;;;;;;3.40;2.42;;;14.50;70.00;;;;;;4899017;29;20070;-75
2021/05/08 10:55:43;;;;;;;2.35;1.90;;;14.50;71.20;;;;;;4898883;29;20067;-76
2021/05/08 10:58:20;;;;;;;3.10;1.83;;;14.60;72.90;;;;;;4899188;29;20056;-76
2021/05/08 11:01:12;;;;;;;8.88;5.38;;;14.70;74.40;;;;;;4915000;29;20051;-77
2021/05/08 11:03:41;;;;;;;2.60;1.70;;;14.90;72.90;;;;;;4914970;29;20079;-77
2021/05/08 11:06:15;;;;;;;2.17;1.63;;;14.90;68.50;;;;;;4914692;29;20135;-77
2021/05/08 11:08:43;;;;;;;1.98;1.63;;;14.90;69.80;;;;;;4898653;29;20052;-77
2021/05/08 11:11:16;;;;;;;3.60;1.65;;;15.00;71.10;;;;;;4914587;29;20040;-77
2021/05/08 11:13:51;;;;;;;2.50;1.52;;;15.10;69.50;;;;;;4914387;29;20075;-77
2021/05/08 11:16:20;;;;;;;1.52;1.17;;;15.20;70.50;;;;;;4899152;29;20044;-77
2021/05/08 11:18:49;;;;;;;1.75;1.20;;;15.20;69.90;;;;;;4882713;29;20072;-77
2021/05/08 11:21:15;;;;;;;3.13;1.60;;;15.30;70.90;;;;;;4896157;29;20108;-77
2021/05/08 11:23:49;;;;;;;2.03;1.42;;;15.30;68.10;;;;;;4895420;29;20045;-77
2021/05/08 11:26:29;;;;;;;2.72;1.38;;;15.30;68.40;;;;;;4895070;29;20424;-77
2021/05/08 11:29:09;;;;;;;3.35;1.75;;;15.40;65.50;;;;;;4879407;29;20101;-77
2021/05/08 11:31:36;;;;;;;3.95;1.63;;;15.40;68.30;;;;;;4904978;29;20585;-77
2021/05/08 11:34:04;;;;;;;2.88;1.80;;;15.50;67.30;;;;;;4898592;29;20076;-74
2021/05/08 11:37:09;;;;;;;2.95;1.40;;;15.60;68.60;;;;;;4897931;29;20040;-75
2021/05/08 11:39:47;;;;;;;2.58;1.73;;;15.70;67.80;;;;;;4872025;29;20044;-75
2021/05/08 11:42:18;;;;;;;2.50;1.52;;;15.80;65.40;;;;;;4878549;29;20072;-76
2021/05/08 11:44:56;;;;;;;4.82;2.00;;;15.80;66.60;;;;;;4895261;29;20492;-76
2021/05/08 11:47:36;;;;;;;2.10;1.27;;;15.90;71.40;;;;;;4895466;29;20120;-75
2021/05/08 11:50:13;;;;;;;4.45;2.13;;;16.00;67.30;;;;;;4878445;29;20045;-75
2021/05/08 11:52:40;;;;;;;1.50;1.30;;;16.10;66.80;;;;;;4882240;29;20076;-76
2021/05/08 11:55:21;;;;;;;1.95;1.40;;;16.20;67.60;;;;;;4878012;29;20044;-75
2021/05/08 11:57:59;;;;;;;2.47;1.50;;;16.30;66.80;;;;;;4876316;29;20048;-76
2021/05/08 12:00:27;;;;;;;1.20;1.00;;;16.30;65.80;;;;;;4876674;29;20091;-76
2021/05/08 12:03:10;;;;;;;2.20;1.23;;;16.50;66.30;;;;;;4877787;29;20159;-76
2021/05/08 12:05:44;;;;;;;1.77;1.00;;;16.50;61.10;;;;;;4892378;29;20512;-75
2021/05/08 12:08:20;;;;;;;1.30;1.10;;;16.60;62.80;;;;;;4892715;29;20526;-76
2021/05/08 12:10:52;;;;;;;2.45;0.98;;;16.60;58.70;;;;;;4893681;29;20049;-76
2021/05/08 12:13:18;;;;;;;14.30;5.70;;;16.60;59.40;;;;;;4879608;29;20067;-76
2021/05/08 12:15:53;;;;;;;34.95;17.17;;;16.60;63.60;;;;;;4895106;29;20488;-75
2021/05/08 12:18:20;;;;;;;2.40;1.80;;;16.70;61.00;;;;;;4894872;29;20052;-76
2021/05/08 12:20:48;;;;;;;1.95;1.33;;;16.70;60.40;;;;;;4879391;29;20048;-76
2021/05/08 12:23:24;;;;;;;2.75;1.58;;;16.80;63.40;;;;;;4895168;29;20140;-74
2021/05/08 12:26:18;;;;;;;2.95;1.25;;;16.80;58.80;;;;;;4880292;29;20489;-76
2021/05/08 12:28:44;;;;;;;2.58;1.67;;;16.90;63.40;;;;;;4878743;29;20422;-76
2021/05/08 12:31:43;;;;;;;2.10;1.90;;;17.10;60.10;;;;;;4879216;29;20053;-76
2021/05/08 12:34:16;;;;;;;1.38;1.20;;;17.00;58.80;;;;;;4879354;29;20139;-76
2021/05/08 12:37:02;;;;;;;3.33;0.82;;;17.10;61.00;;;;;;4878826;29;20072;-76
2021/05/08 12:39:29;;;;;;;2.85;1.00;;;17.30;62.00;;;;;;4879038;29;20504;-76
2021/05/08 12:42:00;;;;;;;2.30;1.00;;;17.40;59.40;;;;;;4895704;29;20068;-76
2021/05/08 12:44:38;;;;;;;1.92;1.17;;;17.60;60.50;;;;;;4899401;29;20045;-76
2021/05/08 12:47:17;;;;;;;0.82;0.82;;;17.60;60.40;;;;;;4882561;29;20049;-76
2021/05/08 12:50:08;;;;;;;1.38;0.88;;;17.60;55.00;;;;;;4882894;29;20059;-76
2021/05/08 12:52:42;;;;;;;2.35;1.55;;;17.70;59.00;;;;;;4899320;29;20349;-77
2021/05/08 12:55:24;;;;;;;0.85;0.73;;;17.70;56.20;;;;;;4883039;29;20582;-76
2021/05/08 12:57:51;;;;;;;1.52;0.75;;;17.90;57.70;;;;;;4898535;29;20131;-75
2021/05/08 13:00:18;;;;;;;1.40;0.77;;;17.90;56.60;;;;;;4881581;29;20135;-76
2021/05/08 13:02:46;;;;;;;1.40;0.90;;;17.90;59.10;;;;;;4882152;29;20072;-75
2021/05/08 13:05:18;;;;;;;1.15;0.95;;;17.90;58.80;;;;;;4882168;29;20036;-76
2021/05/08 13:08:00;;;;;;;1.05;0.70;;;17.80;57.60;;;;;;4897184;29;20040;-76
2021/05/08 13:10:39;;;;;;;4.55;2.38;;;17.90;56.60;;;;;;4897151;29;20468;-76
2021/05/08 13:13:18;;;;;;;1.55;0.93;;;17.90;59.70;;;;;;4897831;29;20048;-76
2021/05/08 13:15:44;;;;;;;1.55;1.17;;;17.70;58.60;;;;;;4897752;29;20123;-76
2021/05/08 13:18:10;;;;;;;1.10;0.90;;;17.70;58.80;;;;;;4898622;29;20100;-76
2021/05/08 13:20:38;;;;;;;2.17;1.40;;;17.80;59.00;;;;;;4897125;29;20135;-75
2021/05/08 13:23:06;;;;;;;1.15;1.05;;;18.00;56.90;;;;;;4881713;29;20603;-76